sensor_id;sensor_type;location;lat;lon;timestamp;P1;durP1;ratioP1;P2;durP2;ratioP2
50379;SDS011;37474;59.468;18.040;2023-07-16T00:01:03;2.78;;;1.40;;
50379;SDS011;37474;59.468;18.040;2023-07-16T00:03:32;2.47;;;1.15;;
50379;SDS011;37474;59.468;18.040;2023-07-16T00:06:03;4.55;;;1.20;;
50379;SDS011;37474;59.468;18.040;2023-07-16T00:08:31;2.13;;;1.10;;
50379;SDS011;37474;59.468;18.040;2023-07-16T00:11:00;5.88;;;1.73;;
50379;SDS011;37474;59.468;18.040;2023-07-16T00:13:31;4.28;;;1.60;;
50379;SDS011;37474;59.468;18.040;2023-07-16T00:16:00;3.47;;;1.60;;
50379;SDS011;37474;59.468;18.040;2023-07-16T00:18:29;1.85;;;1.50;;
50379;SDS011;37474;59.468;18.040;2023-07-16T00:20:58;3.08;;;1.33;;
50379;SDS011;37474;59.468;18.040;2023-07-16T00:23:28;3.15;;;1.50;;
50379;SDS011;37474;59.468;18.040;2023-07-16T00:25:56;2.88;;;1.63;;
50379;SDS011;37474;59.468;18.040;2023-07-16T00:28:25;2.35;;;1.40;;
50379;SDS011;37474;59.468;18.040;2023-07-16T00:30:54;3.28;;;1.48;;
50379;SDS011;37474;59.468;18.040;2023-07-16T00:33:24;2.83;;;1.67;;
50379;SDS011;37474;59.468;18.040;2023-07-16T00:35:53;3.33;;;1.42;;
50379;SDS011;37474;59.468;18.040;2023-07-16T00:38:22;2.25;;;1.60;;
50379;SDS011;37474;59.468;18.040;2023-07-16T00:40:53;2.38;;;1.50;;
50379;SDS011;37474;59.468;18.040;2023-07-16T00:43:22;2.53;;;1.45;;
50379;SDS011;37474;59.468;18.040;2023-07-16T00:45:51;5.43;;;1.50;;
50379;SDS011;37474;59.468;18.040;2023-07-16T00:48:20;3.55;;;1.58;;
50379;SDS011;37474;59.468;18.040;2023-07-16T00:50:49;3.25;;;1.40;;
50379;SDS011;37474;59.468;18.040;2023-07-16T00:53:20;4.68;;;1.83;;
50379;SDS011;37474;59.468;18.040;2023-07-16T00:55:50;2.95;;;1.33;;
50379;SDS011;37474;59.468;18.040;2023-07-16T00:58:22;4.07;;;1.50;;
50379;SDS011;37474;59.468;18.040;2023-07-16T01:03:19;3.78;;;1.70;;
50379;SDS011;37474;59.468;18.040;2023-07-16T01:08:41;4.38;;;1.73;;
50379;SDS011;37474;59.468;18.040;2023-07-16T01:11:13;5.10;;;1.90;;
50379;SDS011;37474;59.468;18.040;2023-07-16T01:18:49;3.42;;;1.60;;
50379;SDS011;37474;59.468;18.040;2023-07-16T01:21:19;3.53;;;1.95;;
50379;SDS011;37474;59.468;18.040;2023-07-16T01:23:53;5.63;;;1.98;;
50379;SDS011;37474;59.468;18.040;2023-07-16T01:26:36;5.57;;;1.80;;
50379;SDS011;37474;59.468;18.040;2023-07-16T01:29:25;4.88;;;1.77;;
50379;SDS011;37474;59.468;18.040;2023-07-16T01:31:58;5.20;;;1.83;;
50379;SDS011;37474;59.468;18.040;2023-07-16T01:34:29;2.92;;;2.08;;
50379;SDS011;37474;59.468;18.040;2023-07-16T01:37:01;4.60;;;1.67;;
50379;SDS011;37474;59.468;18.040;2023-07-16T01:39:32;4.68;;;1.98;;
50379;SDS011;37474;59.468;18.040;2023-07-16T01:42:03;4.00;;;1.75;;
50379;SDS011;37474;59.468;18.040;2023-07-16T01:44:33;3.25;;;1.63;;
50379;SDS011;37474;59.468;18.040;2023-07-16T01:47:05;6.30;;;2.10;;
50379;SDS011;37474;59.468;18.040;2023-07-16T01:49:36;4.10;;;1.70;;
50379;SDS011;37474;59.468;18.040;2023-07-16T01:52:06;5.47;;;1.92;;
50379;SDS011;37474;59.468;18.040;2023-07-16T01:54:35;2.95;;;1.55;;
50379;SDS011;37474;59.468;18.040;2023-07-16T01:57:05;4.55;;;1.70;;
50379;SDS011;37474;59.468;18.040;2023-07-16T01:59:35;3.63;;;1.65;;
50379;SDS011;37474;59.468;18.040;2023-07-16T02:04:33;4.27;;;1.67;;
50379;SDS011;37474;59.468;18.040;2023-07-16T02:07:04;2.95;;;1.63;;
50379;SDS011;37474;59.468;18.040;2023-07-16T02:09:33;2.70;;;1.70;;
50379;SDS011;37474;59.468;18.040;2023-07-16T02:12:04;3.13;;;1.77;;
50379;SDS011;37474;59.468;18.040;2023-07-16T02:14:33;3.00;;;1.77;;
50379;SDS011;37474;59.468;18.040;2023-07-16T02:17:03;4.43;;;1.88;;
50379;SDS011;37474;59.468;18.040;2023-07-16T02:19:33;3.47;;;1.50;;
50379;SDS011;37474;59.468;18.040;2023-07-16T02:22:02;4.85;;;1.70;;
50379;SDS011;37474;59.468;18.040;2023-07-16T02:24:31;3.60;;;1.70;;
50379;SDS011;37474;59.468;18.040;2023-07-16T02:27:00;3.03;;;1.63;;
50379;SDS011;37474;59.468;18.040;2023-07-16T02:29:29;4.43;;;1.70;;
50379;SDS011;37474;59.468;18.040;2023-07-16T02:32:00;4.85;;;1.75;;
50379;SDS011;37474;59.468;18.040;2023-07-16T02:34:31;5.25;;;1.70;;
50379;SDS011;37474;59.468;18.040;2023-07-16T02:39:29;3.30;;;1.85;;
50379;SDS011;37474;59.468;18.040;2023-07-16T02:41:58;3.92;;;2.00;;
50379;SDS011;37474;59.468;18.040;2023-07-16T02:44:28;2.33;;;1.50;;
50379;SDS011;37474;59.468;18.040;2023-07-16T02:46:57;5.30;;;1.80;;
50379;SDS011;37474;59.468;18.040;2023-07-16T02:49:26;4.53;;;1.88;;
50379;SDS011;37474;59.468;18.040;2023-07-16T02:51:56;3.40;;;1.65;;
50379;SDS011;37474;59.468;18.040;2023-07-16T02:56:54;4.20;;;1.77;;
50379;SDS011;37474;59.468;18.040;2023-07-16T02:59:23;3.63;;;1.98;;
50379;SDS011;37474;59.468;18.040;2023-07-16T03:01:52;4.00;;;1.85;;
50379;SDS011;37474;59.468;18.040;2023-07-16T03:04:21;5.25;;;1.90;;
50379;SDS011;37474;59.468;18.040;2023-07-16T03:06:50;3.08;;;1.83;;
50379;SDS011;37474;59.468;18.040;2023-07-16T03:09:20;4.63;;;1.88;;
50379;SDS011;37474;59.468;18.040;2023-07-16T03:11:49;5.05;;;2.05;;
50379;SDS011;37474;59.468;18.040;2023-07-16T03:14:18;3.72;;;1.80;;
50379;SDS011;37474;59.468;18.040;2023-07-16T03:16:47;4.00;;;1.88;;
50379;SDS011;37474;59.468;18.040;2023-07-16T03:19:17;4.57;;;2.15;;
50379;SDS011;37474;59.468;18.040;2023-07-16T03:21:46;3.67;;;2.00;;
50379;SDS011;37474;59.468;18.040;2023-07-16T03:24:16;3.78;;;1.58;;
50379;SDS011;37474;59.468;18.040;2023-07-16T03:26:47;4.30;;;1.83;;
50379;SDS011;37474;59.468;18.040;2023-07-16T03:29:19;3.28;;;1.90;;
50379;SDS011;37474;59.468;18.040;2023-07-16T03:31:49;4.82;;;2.25;;
50379;SDS011;37474;59.468;18.040;2023-07-16T03:34:18;3.63;;;1.85;;
50379;SDS011;37474;59.468;18.040;2023-07-16T03:36:46;6.35;;;2.30;;
50379;SDS011;37474;59.468;18.040;2023-07-16T03:39:16;6.20;;;1.85;;
50379;SDS011;37474;59.468;18.040;2023-07-16T03:41:47;5.20;;;2.00;;
50379;SDS011;37474;59.468;18.040;2023-07-16T03:46:44;5.32;;;2.35;;
50379;SDS011;37474;59.468;18.040;2023-07-16T03:49:14;5.32;;;2.05;;
50379;SDS011;37474;59.468;18.040;2023-07-16T03:51:44;6.82;;;2.33;;
50379;SDS011;37474;59.468;18.040;2023-07-16T03:56:44;6.77;;;2.40;;
50379;SDS011;37474;59.468;18.040;2023-07-16T03:59:14;5.28;;;2.22;;
50379;SDS011;37474;59.468;18.040;2023-07-16T04:01:43;4.20;;;2.38;;
50379;SDS011;37474;59.468;18.040;2023-07-16T04:04:12;6.55;;;2.72;;
50379;SDS011;37474;59.468;18.040;2023-07-16T04:06:44;4.90;;;2.65;;
50379;SDS011;37474;59.468;18.040;2023-07-16T04:09:12;6.93;;;2.33;;
50379;SDS011;37474;59.468;18.040;2023-07-16T04:11:43;5.53;;;2.40;;
50379;SDS011;37474;59.468;18.040;2023-07-16T04:14:14;5.53;;;2.60;;
50379;SDS011;37474;59.468;18.040;2023-07-16T04:19:13;5.88;;;2.63;;
50379;SDS011;37474;59.468;18.040;2023-07-16T04:21:42;5.82;;;3.08;;
50379;SDS011;37474;59.468;18.040;2023-07-16T04:24:13;6.45;;;2.90;;
50379;SDS011;37474;59.468;18.040;2023-07-16T04:26:43;6.07;;;2.67;;
50379;SDS011;37474;59.468;18.040;2023-07-16T04:29:16;5.30;;;2.75;;
50379;SDS011;37474;59.468;18.040;2023-07-16T04:31:45;7.30;;;2.97;;
50379;SDS011;37474;59.468;18.040;2023-07-16T04:34:16;7.97;;;2.67;;
50379;SDS011;37474;59.468;18.040;2023-07-16T04:36:45;7.97;;;2.85;;
50379;SDS011;37474;59.468;18.040;2023-07-16T04:39:15;7.35;;;3.15;;
50379;SDS011;37474;59.468;18.040;2023-07-16T04:41:47;7.88;;;3.30;;
50379;SDS011;37474;59.468;18.040;2023-07-16T04:44:21;4.50;;;2.70;;
50379;SDS011;37474;59.468;18.040;2023-07-16T04:46:51;7.15;;;2.83;;
50379;SDS011;37474;59.468;18.040;2023-07-16T04:51:50;5.40;;;3.03;;
50379;SDS011;37474;59.468;18.040;2023-07-16T04:54:20;6.20;;;2.83;;
50379;SDS011;37474;59.468;18.040;2023-07-16T04:56:51;6.22;;;3.13;;
50379;SDS011;37474;59.468;18.040;2023-07-16T04:59:24;6.55;;;3.15;;
50379;SDS011;37474;59.468;18.040;2023-07-16T05:01:55;6.57;;;3.22;;
50379;SDS011;37474;59.468;18.040;2023-07-16T05:04:25;5.80;;;2.80;;
50379;SDS011;37474;59.468;18.040;2023-07-16T05:06:54;6.63;;;2.73;;
50379;SDS011;37474;59.468;18.040;2023-07-16T05:09:24;7.40;;;3.00;;
50379;SDS011;37474;59.468;18.040;2023-07-16T05:11:53;6.95;;;2.92;;
50379;SDS011;37474;59.468;18.040;2023-07-16T05:14:26;6.15;;;3.42;;
50379;SDS011;37474;59.468;18.040;2023-07-16T05:16:57;6.82;;;3.00;;
50379;SDS011;37474;59.468;18.040;2023-07-16T05:19:27;8.47;;;3.43;;
50379;SDS011;37474;59.468;18.040;2023-07-16T05:21:57;6.53;;;3.13;;
50379;SDS011;37474;59.468;18.040;2023-07-16T05:24:29;8.18;;;3.30;;
50379;SDS011;37474;59.468;18.040;2023-07-16T05:27:02;7.03;;;3.20;;
50379;SDS011;37474;59.468;18.040;2023-07-16T05:29:35;6.53;;;3.05;;
50379;SDS011;37474;59.468;18.040;2023-07-16T05:32:04;8.52;;;3.30;;
50379;SDS011;37474;59.468;18.040;2023-07-16T05:34:35;5.43;;;3.15;;
50379;SDS011;37474;59.468;18.040;2023-07-16T05:37:04;4.70;;;3.00;;
50379;SDS011;37474;59.468;18.040;2023-07-16T05:39:34;6.75;;;3.42;;
50379;SDS011;37474;59.468;18.040;2023-07-16T05:42:03;9.80;;;3.10;;
50379;SDS011;37474;59.468;18.040;2023-07-16T05:44:37;5.53;;;3.05;;
50379;SDS011;37474;59.468;18.040;2023-07-16T05:49:36;7.53;;;2.88;;
50379;SDS011;37474;59.468;18.040;2023-07-16T05:52:06;9.70;;;3.22;;
50379;SDS011;37474;59.468;18.040;2023-07-16T05:57:08;5.70;;;2.80;;
50379;SDS011;37474;59.468;18.040;2023-07-16T05:59:40;8.52;;;3.30;;
50379;SDS011;37474;59.468;18.040;2023-07-16T06:02:09;7.00;;;2.75;;
50379;SDS011;37474;59.468;18.040;2023-07-16T06:04:38;7.50;;;2.70;;
50379;SDS011;37474;59.468;18.040;2023-07-16T06:07:07;6.97;;;2.70;;
50379;SDS011;37474;59.468;18.040;2023-07-16T06:09:37;7.72;;;2.65;;
50379;SDS011;37474;59.468;18.040;2023-07-16T06:12:06;6.97;;;2.72;;
50379;SDS011;37474;59.468;18.040;2023-07-16T06:14:35;6.43;;;2.67;;
50379;SDS011;37474;59.468;18.040;2023-07-16T06:17:05;8.55;;;2.97;;
50379;SDS011;37474;59.468;18.040;2023-07-16T06:19:34;6.22;;;2.65;;
50379;SDS011;37474;59.468;18.040;2023-07-16T06:22:03;7.55;;;2.78;;
50379;SDS011;37474;59.468;18.040;2023-07-16T06:24:32;7.63;;;2.47;;
50379;SDS011;37474;59.468;18.040;2023-07-16T06:27:01;7.70;;;2.78;;
50379;SDS011;37474;59.468;18.040;2023-07-16T06:29:29;7.65;;;3.22;;
50379;SDS011;37474;59.468;18.040;2023-07-16T06:31:58;9.07;;;3.08;;
50379;SDS011;37474;59.468;18.040;2023-07-16T06:34:29;4.53;;;2.55;;
50379;SDS011;37474;59.468;18.040;2023-07-16T06:36:57;7.30;;;2.83;;
50379;SDS011;37474;59.468;18.040;2023-07-16T06:39:26;7.18;;;2.65;;
50379;SDS011;37474;59.468;18.040;2023-07-16T06:41:54;6.70;;;2.80;;
50379;SDS011;37474;59.468;18.040;2023-07-16T06:44:23;6.38;;;3.08;;
50379;SDS011;37474;59.468;18.040;2023-07-16T06:46:52;8.13;;;3.08;;
50379;SDS011;37474;59.468;18.040;2023-07-16T06:49:21;6.95;;;3.03;;
50379;SDS011;37474;59.468;18.040;2023-07-16T06:51:51;6.22;;;2.85;;
50379;SDS011;37474;59.468;18.040;2023-07-16T06:54:19;7.93;;;2.70;;
50379;SDS011;37474;59.468;18.040;2023-07-16T06:56:48;5.38;;;2.70;;
50379;SDS011;37474;59.468;18.040;2023-07-16T06:59:17;8.10;;;2.85;;
50379;SDS011;37474;59.468;18.040;2023-07-16T07:01:45;6.93;;;2.80;;
50379;SDS011;37474;59.468;18.040;2023-07-16T07:04:14;8.82;;;2.97;;
50379;SDS011;37474;59.468;18.040;2023-07-16T07:06:42;4.43;;;2.50;;
50379;SDS011;37474;59.468;18.040;2023-07-16T07:09:13;7.63;;;2.90;;
50379;SDS011;37474;59.468;18.040;2023-07-16T07:11:42;8.38;;;2.78;;
50379;SDS011;37474;59.468;18.040;2023-07-16T07:14:11;7.28;;;3.05;;
50379;SDS011;37474;59.468;18.040;2023-07-16T07:16:40;6.60;;;2.97;;
50379;SDS011;37474;59.468;18.040;2023-07-16T07:19:09;7.10;;;3.00;;
50379;SDS011;37474;59.468;18.040;2023-07-16T07:21:38;12.73;;;4.30;;
50379;SDS011;37474;59.468;18.040;2023-07-16T07:24:08;7.25;;;3.30;;
50379;SDS011;37474;59.468;18.040;2023-07-16T07:26:38;7.05;;;3.40;;
50379;SDS011;37474;59.468;18.040;2023-07-16T07:31:35;8.48;;;3.33;;
50379;SDS011;37474;59.468;18.040;2023-07-16T07:34:04;8.85;;;3.92;;
50379;SDS011;37474;59.468;18.040;2023-07-16T07:36:33;6.68;;;3.22;;
50379;SDS011;37474;59.468;18.040;2023-07-16T07:39:02;6.35;;;3.30;;
50379;SDS011;37474;59.468;18.040;2023-07-16T07:41:30;6.93;;;3.10;;
50379;SDS011;37474;59.468;18.040;2023-07-16T07:44:01;8.77;;;3.22;;
50379;SDS011;37474;59.468;18.040;2023-07-16T07:46:31;8.93;;;3.20;;
50379;SDS011;37474;59.468;18.040;2023-07-16T07:48:59;6.45;;;3.28;;
50379;SDS011;37474;59.468;18.040;2023-07-16T07:51:28;9.02;;;3.45;;
50379;SDS011;37474;59.468;18.040;2023-07-16T07:53:58;4.95;;;3.20;;
50379;SDS011;37474;59.468;18.040;2023-07-16T07:56:28;7.55;;;3.13;;
50379;SDS011;37474;59.468;18.040;2023-07-16T07:58:57;6.72;;;3.10;;
50379;SDS011;37474;59.468;18.040;2023-07-16T08:01:27;8.00;;;3.38;;
50379;SDS011;37474;59.468;18.040;2023-07-16T08:03:56;6.00;;;3.33;;
50379;SDS011;37474;59.468;18.040;2023-07-16T08:06:25;8.23;;;3.20;;
50379;SDS011;37474;59.468;18.040;2023-07-16T08:08:54;6.13;;;3.25;;
50379;SDS011;37474;59.468;18.040;2023-07-16T08:11:23;8.77;;;3.60;;
50379;SDS011;37474;59.468;18.040;2023-07-16T08:13:52;7.00;;;3.13;;
50379;SDS011;37474;59.468;18.040;2023-07-16T08:16:20;6.68;;;3.05;;
50379;SDS011;37474;59.468;18.040;2023-07-16T08:18:50;7.63;;;3.30;;
50379;SDS011;37474;59.468;18.040;2023-07-16T08:21:19;9.45;;;3.40;;
50379;SDS011;37474;59.468;18.040;2023-07-16T08:23:48;8.37;;;3.33;;
50379;SDS011;37474;59.468;18.040;2023-07-16T08:26:18;10.48;;;3.72;;
50379;SDS011;37474;59.468;18.040;2023-07-16T08:28:47;8.45;;;3.33;;
50379;SDS011;37474;59.468;18.040;2023-07-16T08:31:15;7.88;;;3.38;;
50379;SDS011;37474;59.468;18.040;2023-07-16T08:33:44;9.05;;;3.50;;
50379;SDS011;37474;59.468;18.040;2023-07-16T08:36:14;7.32;;;3.30;;
50379;SDS011;37474;59.468;18.040;2023-07-16T08:38:43;8.73;;;3.60;;
50379;SDS011;37474;59.468;18.040;2023-07-16T08:41:12;8.27;;;3.88;;
50379;SDS011;37474;59.468;18.040;2023-07-16T08:43:42;11.90;;;3.90;;
50379;SDS011;37474;59.468;18.040;2023-07-16T08:46:13;6.75;;;3.53;;
50379;SDS011;37474;59.468;18.040;2023-07-16T08:48:44;5.50;;;3.47;;
50379;SDS011;37474;59.468;18.040;2023-07-16T08:51:15;6.35;;;3.70;;
50379;SDS011;37474;59.468;18.040;2023-07-16T08:53:44;8.15;;;3.70;;
50379;SDS011;37474;59.468;18.040;2023-07-16T08:56:12;7.13;;;3.47;;
50379;SDS011;37474;59.468;18.040;2023-07-16T08:58:42;12.82;;;4.20;;
50379;SDS011;37474;59.468;18.040;2023-07-16T09:01:12;8.07;;;3.92;;
50379;SDS011;37474;59.468;18.040;2023-07-16T09:03:47;10.55;;;4.15;;
50379;SDS011;37474;59.468;18.040;2023-07-16T09:06:17;8.88;;;3.97;;
50379;SDS011;37474;59.468;18.040;2023-07-16T09:08:47;12.30;;;4.20;;
50379;SDS011;37474;59.468;18.040;2023-07-16T09:13:48;10.07;;;3.60;;
50379;SDS011;37474;59.468;18.040;2023-07-16T09:16:17;10.00;;;4.40;;
50379;SDS011;37474;59.468;18.040;2023-07-16T09:18:47;9.95;;;4.93;;
50379;SDS011;37474;59.468;18.040;2023-07-16T09:21:27;10.80;;;4.40;;
50379;SDS011;37474;59.468;18.040;2023-07-16T09:24:05;7.78;;;4.47;;
50379;SDS011;37474;59.468;18.040;2023-07-16T09:26:36;8.30;;;4.38;;
50379;SDS011;37474;59.468;18.040;2023-07-16T09:29:05;8.75;;;4.80;;
50379;SDS011;37474;59.468;18.040;2023-07-16T09:31:34;13.35;;;4.60;;
50379;SDS011;37474;59.468;18.040;2023-07-16T09:34:03;11.30;;;4.55;;
50379;SDS011;37474;59.468;18.040;2023-07-16T09:36:33;11.32;;;4.95;;
50379;SDS011;37474;59.468;18.040;2023-07-16T09:39:02;11.93;;;5.68;;
50379;SDS011;37474;59.468;18.040;2023-07-16T09:41:31;9.38;;;5.65;;
50379;SDS011;37474;59.468;18.040;2023-07-16T09:44:00;9.05;;;5.50;;
50379;SDS011;37474;59.468;18.040;2023-07-16T09:46:29;12.57;;;5.45;;
50379;SDS011;37474;59.468;18.040;2023-07-16T09:48:58;12.40;;;5.93;;
50379;SDS011;37474;59.468;18.040;2023-07-16T09:51:26;12.88;;;5.72;;
50379;SDS011;37474;59.468;18.040;2023-07-16T09:54:01;11.70;;;6.00;;
50379;SDS011;37474;59.468;18.040;2023-07-16T09:56:31;11.57;;;6.47;;
50379;SDS011;37474;59.468;18.040;2023-07-16T09:59:05;10.65;;;6.13;;
50379;SDS011;37474;59.468;18.040;2023-07-16T10:01:36;14.57;;;6.68;;
50379;SDS011;37474;59.468;18.040;2023-07-16T10:04:11;14.38;;;6.60;;
50379;SDS011;37474;59.468;18.040;2023-07-16T10:06:50;9.90;;;6.45;;
50379;SDS011;37474;59.468;18.040;2023-07-16T10:09:34;13.07;;;6.85;;
50379;SDS011;37474;59.468;18.040;2023-07-16T10:12:07;12.00;;;6.72;;
50379;SDS011;37474;59.468;18.040;2023-07-16T10:14:39;11.00;;;6.43;;
50379;SDS011;37474;59.468;18.040;2023-07-16T10:17:11;10.57;;;6.47;;
50379;SDS011;37474;59.468;18.040;2023-07-16T10:19:48;10.13;;;5.75;;
50379;SDS011;37474;59.468;18.040;2023-07-16T10:22:18;10.00;;;6.30;;
50379;SDS011;37474;59.468;18.040;2023-07-16T10:24:55;10.38;;;6.95;;
50379;SDS011;37474;59.468;18.040;2023-07-16T10:27:27;11.10;;;6.13;;
50379;SDS011;37474;59.468;18.040;2023-07-16T10:29:56;8.93;;;5.63;;
50379;SDS011;37474;59.468;18.040;2023-07-16T10:32:26;9.02;;;5.60;;
50379;SDS011;37474;59.468;18.040;2023-07-16T10:34:56;7.60;;;5.40;;
50379;SDS011;37474;59.468;18.040;2023-07-16T10:37:25;8.00;;;4.60;;
50379;SDS011;37474;59.468;18.040;2023-07-16T10:39:58;8.18;;;5.22;;
50379;SDS011;37474;59.468;18.040;2023-07-16T10:42:27;6.97;;;4.70;;
50379;SDS011;37474;59.468;18.040;2023-07-16T10:44:57;7.90;;;5.18;;
50379;SDS011;37474;59.468;18.040;2023-07-16T10:47:29;6.63;;;4.38;;
50379;SDS011;37474;59.468;18.040;2023-07-16T10:49:58;6.18;;;4.57;;
50379;SDS011;37474;59.468;18.040;2023-07-16T10:52:28;7.85;;;4.35;;
50379;SDS011;37474;59.468;18.040;2023-07-16T10:54:58;6.35;;;4.82;;
50379;SDS011;37474;59.468;18.040;2023-07-16T10:57:27;6.85;;;4.25;;
50379;SDS011;37474;59.468;18.040;2023-07-16T10:59:57;7.45;;;4.47;;
50379;SDS011;37474;59.468;18.040;2023-07-16T11:02:27;5.75;;;4.25;;
50379;SDS011;37474;59.468;18.040;2023-07-16T11:04:56;5.15;;;4.22;;
50379;SDS011;37474;59.468;18.040;2023-07-16T11:07:28;8.73;;;4.30;;
50379;SDS011;37474;59.468;18.040;2023-07-16T11:09:56;6.03;;;4.32;;
50379;SDS011;37474;59.468;18.040;2023-07-16T11:12:27;8.63;;;4.10;;
50379;SDS011;37474;59.468;18.040;2023-07-16T11:17:24;6.57;;;3.63;;
50379;SDS011;37474;59.468;18.040;2023-07-16T11:19:54;6.38;;;3.70;;
50379;SDS011;37474;59.468;18.040;2023-07-16T11:24:53;6.97;;;3.22;;
50379;SDS011;37474;59.468;18.040;2023-07-16T11:27:23;4.43;;;3.42;;
50379;SDS011;37474;59.468;18.040;2023-07-16T11:29:56;7.03;;;3.70;;
50379;SDS011;37474;59.468;18.040;2023-07-16T11:32:27;5.20;;;3.45;;
50379;SDS011;37474;59.468;18.040;2023-07-16T11:34:57;5.63;;;3.45;;
50379;SDS011;37474;59.468;18.040;2023-07-16T11:37:27;4.43;;;3.65;;
50379;SDS011;37474;59.468;18.040;2023-07-16T11:39:58;4.93;;;3.85;;
50379;SDS011;37474;59.468;18.040;2023-07-16T11:42:29;5.00;;;3.92;;
50379;SDS011;37474;59.468;18.040;2023-07-16T11:45:00;5.32;;;3.75;;
50379;SDS011;37474;59.468;18.040;2023-07-16T11:47:30;5.00;;;3.80;;
50379;SDS011;37474;59.468;18.040;2023-07-16T11:50:03;6.75;;;3.80;;
50379;SDS011;37474;59.468;18.040;2023-07-16T11:52:34;5.95;;;3.60;;
50379;SDS011;37474;59.468;18.040;2023-07-16T11:57:32;4.38;;;3.58;;
50379;SDS011;37474;59.468;18.040;2023-07-16T12:00:03;6.85;;;3.45;;
50379;SDS011;37474;59.468;18.040;2023-07-16T12:02:33;5.38;;;3.30;;
50379;SDS011;37474;59.468;18.040;2023-07-16T12:05:02;5.35;;;3.63;;
50379;SDS011;37474;59.468;18.040;2023-07-16T12:07:31;6.53;;;3.00;;
50379;SDS011;37474;59.468;18.040;2023-07-16T12:10:01;4.05;;;2.30;;
50379;SDS011;37474;59.468;18.040;2023-07-16T12:12:30;2.95;;;2.20;;
50379;SDS011;37474;59.468;18.040;2023-07-16T12:14:59;3.90;;;2.20;;
50379;SDS011;37474;59.468;18.040;2023-07-16T12:17:29;3.17;;;1.77;;
50379;SDS011;37474;59.468;18.040;2023-07-16T12:22:26;2.17;;;1.55;;
50379;SDS011;37474;59.468;18.040;2023-07-16T12:24:55;4.57;;;1.60;;
50379;SDS011;37474;59.468;18.040;2023-07-16T12:27:24;2.78;;;1.70;;
50379;SDS011;37474;59.468;18.040;2023-07-16T12:29:52;2.25;;;1.67;;
50379;SDS011;37474;59.468;18.040;2023-07-16T12:32:21;2.50;;;1.67;;
50379;SDS011;37474;59.468;18.040;2023-07-16T12:34:51;4.03;;;1.85;;
50379;SDS011;37474;59.468;18.040;2023-07-16T12:37:21;3.10;;;1.77;;
50379;SDS011;37474;59.468;18.040;2023-07-16T12:39:50;4.20;;;2.03;;
50379;SDS011;37474;59.468;18.040;2023-07-16T12:42:21;2.70;;;1.90;;
50379;SDS011;37474;59.468;18.040;2023-07-16T12:44:50;5.05;;;1.73;;
50379;SDS011;37474;59.468;18.040;2023-07-16T12:47:20;2.45;;;1.70;;
50379;SDS011;37474;59.468;18.040;2023-07-16T12:49:49;2.90;;;1.90;;
50379;SDS011;37474;59.468;18.040;2023-07-16T12:52:19;3.00;;;1.70;;
50379;SDS011;37474;59.468;18.040;2023-07-16T12:57:16;2.03;;;1.48;;
50379;SDS011;37474;59.468;18.040;2023-07-16T12:59:45;4.35;;;1.80;;
50379;SDS011;37474;59.468;18.040;2023-07-16T13:02:13;2.67;;;1.70;;
50379;SDS011;37474;59.468;18.040;2023-07-16T13:04:42;3.20;;;1.67;;
50379;SDS011;37474;59.468;18.040;2023-07-16T13:07:11;2.53;;;1.67;;
50379;SDS011;37474;59.468;18.040;2023-07-16T13:09:41;3.92;;;1.88;;
50379;SDS011;37474;59.468;18.040;2023-07-16T13:12:12;2.30;;;1.73;;
50379;SDS011;37474;59.468;18.040;2023-07-16T13:14:41;3.03;;;1.88;;
50379;SDS011;37474;59.468;18.040;2023-07-16T13:17:09;2.22;;;1.70;;
50379;SDS011;37474;59.468;18.040;2023-07-16T13:19:38;4.07;;;1.85;;
50379;SDS011;37474;59.468;18.040;2023-07-16T13:22:06;2.92;;;1.88;;
50379;SDS011;37474;59.468;18.040;2023-07-16T13:24:35;2.63;;;1.55;;
50379;SDS011;37474;59.468;18.040;2023-07-16T13:27:05;2.38;;;1.60;;
50379;SDS011;37474;59.468;18.040;2023-07-16T13:29:36;2.75;;;1.70;;
50379;SDS011;37474;59.468;18.040;2023-07-16T13:32:05;3.28;;;1.95;;
50379;SDS011;37474;59.468;18.040;2023-07-16T13:34:34;2.35;;;1.70;;
50379;SDS011;37474;59.468;18.040;2023-07-16T13:37:03;1.80;;;1.60;;
50379;SDS011;37474;59.468;18.040;2023-07-16T13:39:32;2.53;;;1.70;;
50379;SDS011;37474;59.468;18.040;2023-07-16T13:42:00;2.22;;;1.52;;
50379;SDS011;37474;59.468;18.040;2023-07-16T13:44:49;2.30;;;1.60;;
50379;SDS011;37474;59.468;18.040;2023-07-16T13:49:47;2.30;;;1.27;;
50379;SDS011;37474;59.468;18.040;2023-07-16T13:52:16;1.40;;;1.20;;
50379;SDS011;37474;59.468;18.040;2023-07-16T13:54:45;4.13;;;1.30;;
50379;SDS011;37474;59.468;18.040;2023-07-16T13:57:13;1.35;;;1.20;;
50379;SDS011;37474;59.468;18.040;2023-07-16T13:59:42;3.22;;;1.40;;
50379;SDS011;37474;59.468;18.040;2023-07-16T14:02:12;2.15;;;1.45;;
50379;SDS011;37474;59.468;18.040;2023-07-16T14:07:09;3.50;;;1.60;;
50379;SDS011;37474;59.468;18.040;2023-07-16T14:09:37;2.92;;;1.70;;
50379;SDS011;37474;59.468;18.040;2023-07-16T14:12:06;2.58;;;1.60;;
50379;SDS011;37474;59.468;18.040;2023-07-16T14:14:35;1.75;;;1.33;;
50379;SDS011;37474;59.468;18.040;2023-07-16T14:17:04;1.90;;;1.27;;
50379;SDS011;37474;59.468;18.040;2023-07-16T14:19:35;2.90;;;1.50;;
50379;SDS011;37474;59.468;18.040;2023-07-16T14:22:03;2.90;;;1.30;;
50379;SDS011;37474;59.468;18.040;2023-07-16T14:24:32;2.28;;;1.63;;
50379;SDS011;37474;59.468;18.040;2023-07-16T14:27:01;3.78;;;1.30;;
50379;SDS011;37474;59.468;18.040;2023-07-16T14:29:30;2.00;;;1.52;;
50379;SDS011;37474;59.468;18.040;2023-07-16T14:31:59;1.70;;;1.52;;
50379;SDS011;37474;59.468;18.040;2023-07-16T14:34:28;2.47;;;1.40;;
50379;SDS011;37474;59.468;18.040;2023-07-16T14:36:58;2.38;;;1.40;;
50379;SDS011;37474;59.468;18.040;2023-07-16T14:39:29;3.55;;;1.75;;
50379;SDS011;37474;59.468;18.040;2023-07-16T14:41:57;2.57;;;1.70;;
50379;SDS011;37474;59.468;18.040;2023-07-16T14:44:30;2.53;;;1.60;;
50379;SDS011;37474;59.468;18.040;2023-07-16T14:46:58;1.98;;;1.52;;
50379;SDS011;37474;59.468;18.040;2023-07-16T14:49:27;2.78;;;1.52;;
50379;SDS011;37474;59.468;18.040;2023-07-16T14:51:55;2.47;;;1.85;;
50379;SDS011;37474;59.468;18.040;2023-07-16T14:54:25;2.47;;;1.50;;
50379;SDS011;37474;59.468;18.040;2023-07-16T14:56:54;2.65;;;1.55;;
50379;SDS011;37474;59.468;18.040;2023-07-16T14:59:22;2.35;;;1.55;;
50379;SDS011;37474;59.468;18.040;2023-07-16T15:01:51;3.70;;;1.63;;
50379;SDS011;37474;59.468;18.040;2023-07-16T15:04:20;3.22;;;2.03;;
50379;SDS011;37474;59.468;18.040;2023-07-16T15:06:48;5.50;;;1.80;;
50379;SDS011;37474;59.468;18.040;2023-07-16T15:09:18;3.47;;;1.65;;
50379;SDS011;37474;59.468;18.040;2023-07-16T15:11:47;2.47;;;1.60;;
50379;SDS011;37474;59.468;18.040;2023-07-16T15:14:16;3.90;;;1.95;;
50379;SDS011;37474;59.468;18.040;2023-07-16T15:16:44;3.00;;;1.70;;
50379;SDS011;37474;59.468;18.040;2023-07-16T15:19:13;4.03;;;1.70;;
50379;SDS011;37474;59.468;18.040;2023-07-16T15:21:43;3.28;;;1.65;;
50379;SDS011;37474;59.468;18.040;2023-07-16T15:24:12;3.17;;;2.00;;
50379;SDS011;37474;59.468;18.040;2023-07-16T15:26:42;2.60;;;1.98;;
50379;SDS011;37474;59.468;18.040;2023-07-16T15:29:10;3.55;;;1.70;;
50379;SDS011;37474;59.468;18.040;2023-07-16T15:31:39;3.28;;;1.92;;
50379;SDS011;37474;59.468;18.040;2023-07-16T15:34:07;4.55;;;1.58;;
50379;SDS011;37474;59.468;18.040;2023-07-16T15:36:36;5.93;;;1.98;;
50379;SDS011;37474;59.468;18.040;2023-07-16T15:39:05;3.80;;;1.90;;
50379;SDS011;37474;59.468;18.040;2023-07-16T15:41:34;3.05;;;1.70;;
50379;SDS011;37474;59.468;18.040;2023-07-16T15:44:04;2.47;;;1.67;;